createdAt,value
2023-10-19T00:00:22.958Z,65.92
2023-10-19T00:02:57.026Z,65.97
2023-10-19T00:05:30.926Z,66.36
2023-10-19T00:08:08.715Z,65.14
2023-10-19T00:10:44.034Z,65.75
2023-10-19T00:13:20.336Z,65.68
2023-10-19T00:15:54.891Z,65.62
2023-10-19T00:18:28.374Z,65.92
2023-10-19T00:21:00.972Z,65.70
2023-10-19T00:23:34.476Z,65.41
2023-10-19T00:26:10.101Z,65.22
2023-10-19T00:28:50.673Z,66.02
2023-10-19T00:31:25.956Z,65.46
2023-10-19T00:33:59.560Z,64.89
2023-10-19T00:36:33.199Z,65.57
2023-10-19T00:39:15.980Z,66.33
2023-10-19T00:41:49.728Z,65.48
2023-10-19T00:44:33.414Z,66.50
2023-10-19T00:47:13.732Z,67.00
2023-10-19T00:49:48.383Z,67.62
2023-10-19T00:52:24.672Z,67.66
2023-10-19T00:55:00.120Z,68.07
2023-10-19T00:57:35.793Z,67.78
2023-10-19T01:00:13.726Z,67.82
2023-10-19T01:02:48.625Z,68.29
2023-10-19T01:05:23.872Z,69.24
2023-10-19T01:07:58.574Z,68.69
2023-10-19T01:10:33.283Z,67.95
2023-10-19T01:13:07.139Z,68.50
2023-10-19T01:15:42.170Z,68.62
2023-10-19T01:18:18.031Z,70.45
2023-10-19T01:20:53.133Z,69.21
2023-10-19T01:23:30.522Z,70.10
2023-10-19T01:26:06.981Z,70.21
2023-10-19T01:28:49.848Z,71.14
2023-10-19T01:31:39.774Z,70.71
2023-10-19T01:34:13.597Z,69.74
2023-10-19T01:36:46.802Z,70.01
2023-10-19T01:39:20.258Z,70.81
2023-10-19T01:41:53.619Z,70.99
2023-10-19T01:44:26.807Z,70.29
2023-10-19T01:47:02.250Z,70.55
2023-10-19T01:49:34.653Z,70.85
2023-10-19T01:52:07.940Z,70.09
2023-10-19T01:54:41.382Z,70.10
2023-10-19T01:57:15.974Z,69.95
2023-10-19T01:59:48.345Z,69.84
2023-10-19T02:02:23.107Z,68.78
2023-10-19T02:04:57.181Z,69.89
2023-10-19T02:07:30.518Z,69.64
2023-10-19T02:10:05.016Z,69.01
2023-10-19T02:12:38.837Z,69.81
2023-10-19T02:15:10.797Z,69.62
2023-10-19T02:17:45.745Z,70.12
2023-10-19T02:20:33.817Z,69.15
2023-10-19T02:23:12.783Z,69.41
2023-10-19T02:25:47.101Z,69.65
2023-10-19T02:28:30.380Z,69.58
2023-10-19T02:31:12.314Z,69.55
2023-10-19T02:33:53.339Z,69.06
2023-10-19T02:36:29.370Z,69.08
2023-10-19T02:39:09.082Z,69.59
2023-10-19T02:41:45.283Z,68.81
2023-10-19T02:44:23.501Z,69.84
2023-10-19T02:47:01.067Z,69.63
2023-10-19T02:49:39.622Z,69.52
2023-10-19T02:52:15.089Z,69.17
2023-10-19T02:54:48.419Z,69.71
2023-10-19T02:57:23.260Z,69.75
2023-10-19T02:59:55.448Z,69.83
2023-10-19T03:02:29.644Z,69.70
2023-10-19T03:05:02.594Z,69.78
2023-10-19T03:07:35.916Z,69.47
2023-10-19T03:10:08.789Z,69.71
2023-10-19T03:12:44.276Z,69.45
2023-10-19T03:15:16.728Z,69.38
2023-10-19T03:17:50.666Z,69.42
2023-10-19T03:20:25.365Z,69.29
2023-10-19T03:23:02.283Z,69.35
2023-10-19T03:26:18.420Z,69.02
2023-10-19T03:28:56.384Z,68.15
2023-10-19T03:31:29.954Z,68.52
2023-10-19T03:34:06.588Z,68.11
2023-10-19T03:36:40.471Z,67.78
2023-10-19T03:39:14.471Z,68.16
2023-10-19T03:41:53.997Z,68.09
2023-10-19T03:44:40.018Z,68.38
2023-10-19T03:47:15.718Z,69.18
2023-10-19T03:49:50.056Z,68.74
2023-10-19T03:52:23.668Z,68.43
2023-10-19T03:54:58.779Z,69.14
2023-10-19T03:57:32.533Z,68.14
2023-10-19T04:00:17.381Z,69.17
2023-10-19T04:02:54.703Z,68.40
2023-10-19T04:05:29.867Z,68.98
2023-10-19T04:08:10.692Z,68.92
2023-10-19T04:10:48.729Z,68.93
2023-10-19T04:13:22.776Z,68.97
2023-10-19T04:15:57.295Z,69.19
2023-10-19T04:18:31.128Z,68.65
2023-10-19T04:21:04.492Z,68.61
2023-10-19T04:23:38.146Z,68.76
2023-10-19T04:26:13.053Z,68.75
2023-10-19T04:28:51.998Z,68.79
2023-10-19T04:31:26.638Z,68.96
2023-10-19T04:33:59.712Z,69.09
2023-10-19T04:36:34.828Z,68.48
2023-10-19T04:39:13.037Z,68.82
2023-10-19T04:41:48.334Z,69.29
2023-10-19T04:44:21.563Z,68.67
2023-10-19T04:46:56.382Z,68.36
2023-10-19T04:49:30.659Z,68.88
2023-10-19T04:52:04.640Z,68.67
2023-10-19T04:54:38.744Z,68.37
2023-10-19T04:57:12.050Z,68.27
2023-10-19T04:59:46.657Z,68.90
2023-10-19T05:02:21.380Z,68.53
2023-10-19T05:04:55.039Z,68.81
2023-10-19T05:07:28.333Z,68.62
2023-10-19T05:10:04.399Z,68.65
2023-10-19T05:12:38.182Z,68.38
2023-10-19T05:15:12.549Z,69.20
2023-10-19T05:17:47.077Z,68.49
2023-10-19T05:20:22.450Z,69.06
2023-10-19T05:22:56.016Z,68.31
2023-10-19T05:25:29.359Z,68.93
2023-10-19T05:28:02.460Z,69.02
2023-10-19T05:30:35.578Z,68.29
2023-10-19T05:33:10.614Z,69.11
2023-10-19T05:35:44.729Z,69.08
2023-10-19T05:38:17.934Z,68.83
2023-10-19T05:40:53.467Z,68.81
2023-10-19T05:43:26.666Z,68.89
2023-10-19T05:45:59.564Z,68.17
2023-10-19T05:48:33.954Z,68.87
2023-10-19T05:51:07.286Z,69.22
2023-10-19T05:53:40.416Z,68.88
2023-10-19T05:56:13.563Z,69.15
2023-10-19T05:58:49.940Z,69.43
2023-10-19T06:01:23.389Z,69.45
2023-10-19T06:03:58.045Z,69.31
2023-10-19T06:06:31.193Z,68.92
2023-10-19T06:09:05.827Z,68.76
2023-10-19T06:11:43.776Z,69.59
2023-10-19T06:14:16.974Z,69.59
2023-10-19T06:16:50.272Z,69.60
2023-10-19T06:19:24.715Z,69.79
2023-10-19T06:21:57.818Z,70.21
2023-10-19T06:24:30.739Z,69.72
2023-10-19T06:27:05.160Z,69.57
2023-10-19T06:29:38.154Z,69.66
2023-10-19T06:32:11.092Z,69.99
2023-10-19T06:34:45.937Z,70.24
2023-10-19T06:37:19.459Z,69.95
2023-10-19T06:39:55.219Z,70.18
2023-10-19T06:42:28.404Z,70.16
2023-10-19T06:45:01.393Z,69.83
2023-10-19T06:47:38.397Z,69.61
2023-10-19T06:50:14.582Z,69.59
2023-10-19T06:52:49.152Z,69.71
2023-10-19T06:55:22.679Z,69.96
2023-10-19T06:57:56.923Z,70.12
2023-10-19T07:00:29.883Z,70.24
2023-10-19T07:03:03.711Z,70.15
2023-10-19T07:05:38.134Z,69.98
2023-10-19T07:08:11.240Z,70.25
2023-10-19T07:10:44.702Z,69.61
2023-10-19T07:13:18.154Z,69.74
2023-10-19T07:15:51.402Z,69.87
2023-10-19T07:18:24.888Z,69.84
2023-10-19T07:21:04.384Z,69.65
2023-10-19T07:23:39.169Z,69.75
2023-10-19T07:26:12.820Z,69.58
2023-10-19T07:28:45.854Z,69.75
2023-10-19T07:31:18.479Z,69.83
2023-10-19T07:33:51.963Z,69.78
2023-10-19T07:36:26.096Z,69.97
2023-10-19T07:38:58.848Z,70.09
2023-10-19T07:41:37.581Z,70.23
2023-10-19T07:44:10.671Z,69.89
2023-10-19T07:46:43.690Z,69.98
2023-10-19T07:49:16.677Z,69.87
2023-10-19T07:51:51.148Z,69.97
2023-10-19T07:54:24.145Z,70.18
2023-10-19T07:56:58.775Z,70.69
2023-10-19T07:59:32.350Z,69.73
2023-10-19T08:02:05.600Z,69.92
2023-10-19T08:04:38.844Z,69.54
2023-10-19T08:07:13.087Z,69.72
2023-10-19T08:09:46.711Z,69.88
2023-10-19T08:12:24.004Z,69.82
2023-10-19T08:14:57.700Z,70.13
2023-10-19T08:17:31.023Z,70.14
2023-10-19T08:20:05.010Z,69.64
2023-10-19T08:22:39.385Z,69.77
2023-10-19T08:25:13.919Z,70.09
2023-10-19T08:27:50.864Z,69.88
2023-10-19T08:30:26.378Z,69.96
2023-10-19T08:33:00.894Z,69.90
2023-10-19T08:35:33.638Z,69.86
2023-10-19T08:38:12.755Z,70.09
2023-10-19T08:40:47.065Z,69.88
2023-10-19T08:43:20.535Z,69.84
2023-10-19T08:45:53.315Z,69.92
2023-10-19T08:48:26.929Z,69.58
2023-10-19T08:51:00.604Z,70.15
2023-10-19T08:53:40.690Z,69.88
2023-10-19T08:56:13.900Z,70.04
2023-10-19T08:58:47.229Z,70.15
2023-10-19T09:01:25.104Z,70.10
2023-10-19T09:03:59.605Z,69.87
2023-10-19T09:06:32.770Z,69.94
2023-10-19T09:09:10.868Z,69.73
2023-10-19T09:11:44.290Z,69.70
2023-10-19T09:14:18.959Z,70.17
2023-10-19T09:16:58.704Z,70.00
2023-10-19T09:19:39.187Z,70.24
2023-10-19T09:22:19.493Z,69.89
2023-10-19T09:24:55.344Z,69.70
2023-10-19T09:27:28.129Z,69.50
2023-10-19T09:30:02.362Z,69.46
2023-10-19T09:32:35.734Z,69.63
2023-10-19T09:35:12.057Z,69.67
2023-10-19T09:37:45.161Z,70.01
2023-10-19T09:40:20.896Z,69.54
2023-10-19T09:42:59.017Z,69.71
2023-10-19T09:45:34.413Z,69.98
2023-10-19T09:48:10.242Z,69.65
2023-10-19T09:50:43.622Z,69.92
2023-10-19T09:53:17.064Z,69.16
2023-10-19T09:55:53.573Z,69.45
2023-10-19T09:58:31.549Z,69.32
2023-10-19T10:01:05.094Z,69.86
2023-10-19T10:03:49.058Z,69.50
2023-10-19T10:06:30.415Z,69.63
2023-10-19T10:09:04.767Z,69.40
2023-10-19T10:11:39.323Z,69.70
2023-10-19T10:14:26.456Z,69.87
2023-10-19T10:17:03.130Z,68.44
2023-10-19T10:19:36.049Z,70.75
2023-10-19T10:22:13.324Z,67.86
2023-10-19T10:24:47.240Z,69.97
2023-10-19T10:27:21.939Z,69.69
2023-10-19T10:29:59.657Z,68.98
2023-10-19T10:32:48.929Z,68.86
2023-10-19T10:35:55.972Z,68.82
2023-10-19T10:38:36.533Z,68.67
2023-10-19T10:41:12.824Z,68.21
2023-10-19T10:43:55.102Z,68.53
2023-10-19T10:46:30.286Z,69.65
2023-10-19T10:49:03.636Z,68.26
2023-10-19T10:51:36.541Z,67.35
2023-10-19T10:54:09.904Z,69.25
2023-10-19T10:56:43.654Z,67.22
2023-10-19T10:59:18.767Z,68.09
2023-10-19T11:01:52.398Z,67.93
2023-10-19T11:04:25.558Z,69.13
2023-10-19T11:06:59.855Z,68.31
2023-10-19T11:09:45.845Z,66.43
2023-10-19T11:12:20.342Z,66.48
2023-10-19T11:14:55.798Z,68.17
2023-10-19T11:17:31.811Z,68.84
2023-10-19T11:20:20.139Z,67.79
2023-10-19T11:22:56.912Z,68.30
2023-10-19T11:25:32.053Z,67.72
2023-10-19T11:28:19.115Z,68.43
2023-10-19T11:30:57.505Z,67.73
2023-10-19T11:33:31.079Z,68.45
2023-10-19T11:36:03.839Z,66.54
2023-10-19T11:38:37.320Z,68.26
2023-10-19T11:41:10.394Z,68.08
2023-10-19T11:43:46.033Z,67.50
2023-10-19T11:46:22.937Z,67.41
2023-10-19T11:48:55.966Z,68.25
2023-10-19T11:51:28.692Z,67.79
2023-10-19T11:54:02.202Z,67.64
2023-10-19T11:56:36.053Z,68.00
2023-10-19T11:59:09.540Z,67.62
2023-10-19T12:01:44.274Z,67.61
2023-10-19T12:04:20.221Z,67.49
2023-10-19T12:06:54.346Z,67.45
2023-10-19T12:09:27.271Z,67.09
2023-10-19T12:12:06.769Z,67.03
2023-10-19T12:14:39.842Z,67.03
2023-10-19T12:17:14.091Z,66.86
2023-10-19T12:19:47.105Z,66.67
2023-10-19T12:22:19.876Z,66.67
2023-10-19T12:24:59.923Z,66.50
2023-10-19T12:27:32.591Z,66.48
2023-10-19T12:30:21.578Z,66.52
2023-10-19T12:32:56.400Z,66.38
2023-10-19T12:35:45.673Z,66.56
2023-10-19T12:38:18.909Z,66.45
2023-10-19T12:40:52.740Z,66.13
2023-10-19T12:43:26.438Z,66.70
2023-10-19T12:45:59.965Z,66.37
2023-10-19T12:48:37.180Z,66.25
2023-10-19T12:51:12.814Z,66.27
2023-10-19T12:53:47.329Z,66.24
2023-10-19T12:56:25.940Z,66.25
2023-10-19T12:59:00.841Z,66.39
2023-10-19T13:01:36.718Z,66.60
2023-10-19T13:04:17.824Z,66.95
2023-10-19T13:06:51.019Z,66.30
2023-10-19T13:09:32.094Z,66.45
2023-10-19T13:12:09.114Z,66.33
2023-10-19T13:14:45.355Z,66.26
2023-10-19T13:17:21.111Z,66.35
2023-10-19T13:20:00.091Z,66.87
2023-10-19T13:22:35.027Z,66.36
2023-10-19T13:25:10.541Z,66.21
2023-10-19T13:27:43.822Z,66.41
2023-10-19T13:30:16.731Z,66.29
2023-10-19T13:32:50.482Z,65.80
2023-10-19T13:35:31.528Z,66.39
2023-10-19T13:38:09.085Z,66.49
2023-10-19T13:40:46.208Z,66.44
2023-10-19T13:43:22.647Z,67.24
2023-10-19T13:45:58.142Z,67.02
2023-10-19T13:48:31.034Z,67.06
2023-10-19T13:51:14.721Z,66.33
2023-10-19T13:53:48.212Z,66.55
2023-10-19T13:56:21.201Z,66.09
2023-10-19T13:58:54.392Z,66.94
2023-10-19T14:01:30.793Z,66.62
2023-10-19T14:04:04.239Z,66.42
2023-10-19T14:06:43.282Z,67.34
2023-10-19T14:09:18.497Z,67.02
2023-10-19T14:11:55.143Z,66.87
2023-10-19T14:14:28.045Z,67.47
2023-10-19T14:17:01.784Z,66.88
2023-10-19T14:19:34.775Z,67.17
2023-10-19T14:22:09.437Z,67.06
2023-10-19T14:24:42.911Z,66.91
2023-10-19T14:27:17.955Z,67.02
2023-10-19T14:29:51.394Z,67.86
2023-10-19T14:32:28.190Z,68.27
2023-10-19T14:35:02.620Z,68.30
2023-10-19T14:37:37.124Z,67.77
2023-10-19T14:40:15.919Z,67.82
2023-10-19T14:42:55.315Z,67.81
2023-10-19T14:45:33.729Z,68.22
2023-10-19T14:48:09.901Z,68.81
2023-10-19T14:50:48.391Z,68.35
2023-10-19T14:53:23.321Z,68.45
2023-10-19T14:55:59.552Z,68.04
2023-10-19T14:58:32.790Z,67.89
2023-10-19T15:01:07.706Z,67.70
2023-10-19T15:03:40.760Z,67.84
2023-10-19T15:06:15.628Z,68.08
2023-10-19T15:08:49.788Z,68.28
2023-10-19T15:11:23.324Z,67.94
2023-10-19T15:13:56.278Z,67.99
2023-10-19T15:16:28.937Z,67.43
2023-10-19T15:19:01.834Z,67.95
2023-10-19T15:21:34.664Z,67.94
2023-10-19T15:24:09.318Z,67.64
2023-10-19T15:26:42.227Z,67.79
2023-10-19T15:29:15.038Z,68.06
2023-10-19T15:31:48.824Z,67.87
2023-10-19T15:34:22.461Z,68.76
2023-10-19T15:36:55.960Z,67.70
2023-10-19T15:39:30.669Z,67.68
2023-10-19T15:42:05.281Z,68.11
2023-10-19T15:44:38.508Z,68.25
2023-10-19T15:47:13.348Z,68.39
2023-10-19T15:49:50.683Z,68.60
2023-10-19T15:52:24.573Z,68.52
2023-10-19T15:54:59.625Z,67.84
2023-10-19T15:57:34.837Z,67.75
2023-10-19T16:00:15.542Z,68.21
2023-10-19T16:02:49.209Z,69.52
2023-10-19T16:05:22.557Z,69.00
2023-10-19T16:07:56.093Z,68.23
2023-10-19T16:10:30.760Z,68.64
2023-10-19T16:13:04.317Z,68.38
2023-10-19T16:15:37.546Z,68.83
2023-10-19T16:18:12.605Z,68.40
2023-10-19T16:20:46.098Z,69.50
2023-10-19T16:23:19.845Z,68.58
2023-10-19T16:26:04.251Z,68.58
2023-10-19T16:28:37.732Z,69.35
2023-10-19T16:31:13.031Z,69.34
2023-10-19T16:33:46.177Z,68.74
2023-10-19T16:36:19.425Z,68.66
2023-10-19T16:38:53.256Z,68.29
2023-10-19T16:41:28.094Z,69.02
2023-10-19T16:44:01.113Z,68.12
2023-10-19T16:46:34.834Z,68.27
2023-10-19T16:49:08.487Z,68.28
2023-10-19T16:51:45.122Z,68.46
2023-10-19T16:54:18.847Z,69.05
2023-10-19T16:56:53.417Z,68.04
2023-10-19T16:59:28.196Z,67.77
2023-10-19T17:02:02.808Z,68.76
2023-10-19T17:04:37.071Z,68.32
2023-10-19T17:07:10.766Z,68.27
2023-10-19T17:09:44.959Z,68.39
2023-10-19T17:12:20.018Z,68.54
2023-10-19T17:14:53.744Z,68.59
2023-10-19T17:17:28.086Z,68.57
2023-10-19T17:20:01.453Z,68.82
2023-10-19T17:22:34.599Z,68.20
2023-10-19T17:25:09.189Z,67.98
2023-10-19T17:27:43.838Z,70.44
2023-10-19T17:30:16.780Z,69.29
2023-10-19T17:32:52.509Z,69.03
2023-10-19T17:35:27.942Z,68.82
2023-10-19T17:38:01.334Z,67.84
2023-10-19T17:40:34.865Z,68.69
2023-10-19T17:43:10.669Z,67.69
2023-10-19T17:45:47.928Z,68.24
2023-10-19T17:48:21.257Z,68.12
2023-10-19T17:50:55.284Z,67.85
2023-10-19T17:53:29.131Z,67.38
2023-10-19T17:56:02.456Z,67.57
2023-10-19T17:58:37.858Z,67.66
2023-10-19T18:01:12.374Z,67.75
2023-10-19T18:03:46.158Z,67.52
2023-10-19T18:06:19.481Z,67.07
2023-10-19T18:08:52.653Z,67.60
2023-10-19T18:11:27.217Z,67.69
2023-10-19T18:14:02.268Z,67.99
2023-10-19T18:16:35.927Z,67.48
2023-10-19T18:19:10.552Z,67.51
2023-10-19T18:21:43.709Z,67.09
2023-10-19T18:24:17.036Z,67.12
2023-10-19T18:26:50.273Z,67.70
2023-10-19T18:29:24.888Z,67.54
2023-10-19T18:31:58.451Z,67.25
2023-10-19T18:34:32.122Z,67.30
2023-10-19T18:37:05.011Z,67.20
2023-10-19T18:39:38.306Z,67.41
2023-10-19T18:42:12.660Z,67.43
2023-10-19T18:44:47.020Z,67.35
2023-10-19T18:47:20.079Z,67.41
2023-10-19T18:49:55.532Z,67.55
2023-10-19T18:52:28.937Z,67.34
2023-10-19T18:55:02.413Z,67.67
2023-10-19T18:57:36.611Z,67.38
2023-10-19T19:00:13.152Z,67.58
2023-10-19T19:02:47.005Z,67.48
2023-10-19T19:05:20.516Z,67.86
2023-10-19T19:07:54.364Z,67.15
2023-10-19T19:10:34.244Z,67.51
2023-10-19T19:13:08.204Z,67.25
2023-10-19T19:15:42.890Z,67.48
2023-10-19T19:18:16.921Z,68.08
2023-10-19T19:20:50.243Z,67.34
2023-10-19T19:23:23.771Z,67.70
2023-10-19T19:25:57.167Z,67.59
2023-10-19T19:28:34.189Z,67.19
2023-10-19T19:31:09.223Z,67.13
2023-10-19T19:33:42.693Z,67.57
2023-10-19T19:36:16.820Z,67.62
2023-10-19T19:38:50.634Z,67.84
2023-10-19T19:41:24.769Z,67.51
2023-10-19T19:43:58.268Z,67.88
2023-10-19T19:46:33.494Z,67.32
2023-10-19T19:49:07.020Z,67.29
2023-10-19T19:51:40.282Z,67.82
2023-10-19T19:54:13.575Z,67.94
2023-10-19T19:56:47.757Z,67.51
2023-10-19T19:59:22.480Z,67.82
2023-10-19T20:01:57.208Z,68.14
2023-10-19T20:04:30.988Z,67.51
2023-10-19T20:07:04.467Z,67.93
2023-10-19T20:09:37.770Z,67.72
2023-10-19T20:12:11.635Z,68.10
2023-10-19T20:14:44.514Z,67.97
2023-10-19T20:17:19.038Z,67.59
2023-10-19T20:19:52.500Z,68.70
2023-10-19T20:22:27.540Z,67.72
2023-10-19T20:25:02.455Z,68.02
2023-10-19T20:27:35.946Z,68.55
2023-10-19T20:30:13.727Z,67.96
2023-10-19T20:32:48.936Z,67.98
2023-10-19T20:35:27.764Z,68.52
2023-10-19T20:38:01.822Z,67.93
2023-10-19T20:40:38.396Z,68.09
2023-10-19T20:43:12.557Z,67.77
2023-10-19T20:45:46.164Z,68.37
2023-10-19T20:48:21.083Z,68.11
2023-10-19T20:50:54.652Z,68.22
2023-10-19T20:53:28.178Z,68.16
2023-10-19T20:56:02.250Z,67.76
2023-10-19T20:58:35.769Z,67.86
2023-10-19T21:01:09.716Z,67.67
2023-10-19T21:03:48.223Z,68.15
2023-10-19T21:06:21.957Z,68.20
2023-10-19T21:08:55.115Z,68.18
2023-10-19T21:11:29.187Z,68.20
2023-10-19T21:14:02.819Z,68.60
2023-10-19T21:16:36.542Z,68.23
2023-10-19T21:19:22.377Z,68.09
2023-10-19T21:25:05.123Z,67.88
2023-10-19T21:27:38.316Z,67.96
2023-10-19T21:30:14.355Z,68.27
2023-10-19T21:32:48.678Z,68.57
2023-10-19T21:35:23.207Z,68.83
2023-10-19T21:37:56.299Z,69.02
2023-10-19T21:40:29.755Z,68.71
2023-10-19T21:43:03.727Z,68.79
2023-10-19T21:45:37.372Z,69.17
2023-10-19T21:48:10.929Z,69.26
2023-10-19T21:50:46.541Z,69.08
2023-10-19T21:53:20.562Z,69.07
2023-10-19T21:55:55.242Z,68.88
2023-10-19T22:01:25.343Z,68.34
2023-10-19T22:03:58.746Z,68.58
2023-10-19T22:06:33.584Z,68.25
2023-10-19T22:09:08.012Z,67.97
2023-10-19T22:11:41.121Z,68.16
2023-10-19T22:14:14.220Z,68.41
2023-10-19T22:16:47.628Z,68.20
2023-10-19T22:19:20.885Z,68.83
2023-10-19T22:21:55.530Z,68.63
2023-10-19T22:24:29.444Z,68.58
2023-10-19T22:27:02.406Z,68.32
2023-10-19T22:29:35.488Z,68.88
2023-10-19T22:32:09.311Z,68.64
2023-10-19T22:34:43.120Z,68.84
2023-10-19T22:37:17.448Z,68.67
2023-10-19T22:39:50.422Z,68.81
2023-10-19T22:42:24.076Z,69.04
2023-10-19T22:44:57.144Z,68.88
2023-10-19T22:47:31.548Z,68.89
2023-10-19T22:50:05.372Z,69.27
2023-10-19T22:52:40.578Z,69.40
2023-10-19T22:55:14.679Z,68.66
2023-10-19T22:57:52.610Z,68.86
2023-10-19T23:00:28.847Z,68.72
2023-10-19T23:03:01.967Z,69.20
2023-10-19T23:05:35.240Z,68.79
2023-10-19T23:08:10.550Z,68.83
2023-10-19T23:10:46.691Z,68.86
2023-10-19T23:13:21.751Z,69.10
2023-10-19T23:21:51.927Z,68.76
2023-10-19T23:24:30.665Z,69.31
2023-10-19T23:27:05.099Z,69.79
2023-10-19T23:29:45.442Z,69.30
2023-10-19T23:32:19.660Z,69.08
2023-10-19T23:34:53.157Z,69.28
2023-10-19T23:37:26.799Z,69.02
2023-10-19T23:40:02.280Z,69.55
2023-10-19T23:42:35.495Z,68.96
2023-10-19T23:45:12.849Z,69.99
2023-10-19T23:47:46.183Z,69.58
2023-10-19T23:50:19.795Z,69.76
2023-10-19T23:52:54.359Z,69.22
2023-10-19T23:55:29.028Z,69.77
2023-10-19T23:58:01.966Z,69.55
